sensor_id;sensor_type;location;lat;lon;timestamp;pressure;altitude;pressure_sealevel;temperature;humidity
38267;BME280;24063;51.794;19.578;2022-11-20T00:00:45;98254.81;;;-4.44;76.74
38267;BME280;24063;51.794;19.578;2022-11-20T00:01:51;98255.20;;;-4.45;76.99
38267;BME280;24063;51.794;19.578;2022-11-20T00:02:53;98258.61;;;-4.45;76.95
38267;BME280;24063;51.794;19.578;2022-11-20T00:03:56;98257.99;;;-4.46;77.05
38267;BME280;24063;51.794;19.578;2022-11-20T00:04:59;98256.65;;;-4.47;76.91
38267;BME280;24063;51.794;19.578;2022-11-20T00:06:05;98259.44;;;-4.46;76.84
38267;BME280;24063;51.794;19.578;2022-11-20T00:07:07;98254.57;;;-4.47;77.06
38267;BME280;24063;51.794;19.578;2022-11-20T00:08:10;98253.00;;;-4.47;77.15
38267;BME280;24063;51.794;19.578;2022-11-20T00:09:11;98250.27;;;-4.46;76.99
38267;BME280;24063;51.794;19.578;2022-11-20T00:10:13;98255.86;;;-4.47;76.71
38267;BME280;24063;51.794;19.578;2022-11-20T00:11:19;98253.96;;;-4.47;76.56
38267;BME280;24063;51.794;19.578;2022-11-20T00:12:21;98254.94;;;-4.47;76.59
38267;BME280;24063;51.794;19.578;2022-11-20T00:13:22;98256.39;;;-4.47;76.73
38267;BME280;24063;51.794;19.578;2022-11-20T00:14:24;98255.10;;;-4.47;76.88
38267;BME280;24063;51.794;19.578;2022-11-20T00:15:26;98256.04;;;-4.46;76.78
38267;BME280;24063;51.794;19.578;2022-11-20T00:16:31;98252.80;;;-4.47;77.02
38267;BME280;24063;51.794;19.578;2022-11-20T00:17:33;98252.23;;;-4.46;76.88
38267;BME280;24063;51.794;19.578;2022-11-20T00:18:35;98253.41;;;-4.46;76.90
38267;BME280;24063;51.794;19.578;2022-11-20T00:19:37;98251.86;;;-4.46;77.04
38267;BME280;24063;51.794;19.578;2022-11-20T00:20:39;98252.38;;;-4.46;77.12
38267;BME280;24063;51.794;19.578;2022-11-20T00:21:41;98248.94;;;-4.47;77.11
38267;BME280;24063;51.794;19.578;2022-11-20T00:22:43;98251.70;;;-4.46;76.92
38267;BME280;24063;51.794;19.578;2022-11-20T00:23:45;98248.23;;;-4.48;77.04
38267;BME280;24063;51.794;19.578;2022-11-20T00:24:47;98249.52;;;-4.48;76.96
38267;BME280;24063;51.794;19.578;2022-11-20T00:25:48;98250.20;;;-4.50;77.04
38267;BME280;24063;51.794;19.578;2022-11-20T00:26:50;98248.45;;;-4.51;77.44
38267;BME280;24063;51.794;19.578;2022-11-20T00:27:52;98248.52;;;-4.52;77.63
38267;BME280;24063;51.794;19.578;2022-11-20T00:29:00;98247.63;;;-4.52;77.59
38267;BME280;24063;51.794;19.578;2022-11-20T00:30:04;98250.39;;;-4.51;77.62
38267;BME280;24063;51.794;19.578;2022-11-20T00:31:12;98248.77;;;-4.51;77.95
38267;BME280;24063;51.794;19.578;2022-11-20T00:32:14;98247.07;;;-4.50;77.73
38267;BME280;24063;51.794;19.578;2022-11-20T00:33:16;98247.86;;;-4.49;77.71
38267;BME280;24063;51.794;19.578;2022-11-20T00:34:18;98247.73;;;-4.50;77.68
38267;BME280;24063;51.794;19.578;2022-11-20T00:35:20;98246.35;;;-4.50;77.93
38267;BME280;24063;51.794;19.578;2022-11-20T00:36:25;98245.79;;;-4.50;77.90
38267;BME280;24063;51.794;19.578;2022-11-20T00:37:27;98242.73;;;-4.50;77.74
38267;BME280;24063;51.794;19.578;2022-11-20T00:38:29;98239.24;;;-4.51;77.62
38267;BME280;24063;51.794;19.578;2022-11-20T00:39:31;98240.24;;;-4.52;77.55
38267;BME280;24063;51.794;19.578;2022-11-20T00:40:33;98239.38;;;-4.53;77.69
38267;BME280;24063;51.794;19.578;2022-11-20T00:41:35;98238.59;;;-4.54;77.99
38267;BME280;24063;51.794;19.578;2022-11-20T00:42:41;98240.58;;;-4.55;77.86
38267;BME280;24063;51.794;19.578;2022-11-20T00:43:43;98238.98;;;-4.56;78.13
38267;BME280;24063;51.794;19.578;2022-11-20T00:44:45;98240.05;;;-4.56;78.19
38267;BME280;24063;51.794;19.578;2022-11-20T00:45:47;98238.38;;;-4.56;78.40
38267;BME280;24063;51.794;19.578;2022-11-20T00:46:49;98240.31;;;-4.54;78.43
38267;BME280;24063;51.794;19.578;2022-11-20T00:47:50;98245.64;;;-4.51;78.09
38267;BME280;24063;51.794;19.578;2022-11-20T00:48:53;98237.95;;;-4.50;78.04
38267;BME280;24063;51.794;19.578;2022-11-20T00:49:55;98239.30;;;-4.48;77.99
38267;BME280;24063;51.794;19.578;2022-11-20T00:50:57;98240.41;;;-4.46;78.01
38267;BME280;24063;51.794;19.578;2022-11-20T00:51:59;98241.42;;;-4.43;77.97
38267;BME280;24063;51.794;19.578;2022-11-20T00:53:01;98243.23;;;-4.40;77.86
38267;BME280;24063;51.794;19.578;2022-11-20T00:54:03;98243.52;;;-4.37;77.82
38267;BME280;24063;51.794;19.578;2022-11-20T00:55:05;98246.83;;;-4.35;77.94
38267;BME280;24063;51.794;19.578;2022-11-20T00:56:11;98242.55;;;-4.32;78.05
38267;BME280;24063;51.794;19.578;2022-11-20T00:57:14;98243.39;;;-4.29;77.90
38267;BME280;24063;51.794;19.578;2022-11-20T00:58:15;98245.22;;;-4.26;77.43
38267;BME280;24063;51.794;19.578;2022-11-20T00:59:17;98244.48;;;-4.26;77.31
38267;BME280;24063;51.794;19.578;2022-11-20T01:00:19;98245.94;;;-4.25;77.25
38267;BME280;24063;51.794;19.578;2022-11-20T01:01:24;98242.45;;;-4.25;77.17
38267;BME280;24063;51.794;19.578;2022-11-20T01:02:26;98245.64;;;-4.24;77.11
38267;BME280;24063;51.794;19.578;2022-11-20T01:03:33;98243.04;;;-4.23;77.05
38267;BME280;24063;51.794;19.578;2022-11-20T01:04:36;98244.72;;;-4.21;77.23
38267;BME280;24063;51.794;19.578;2022-11-20T01:05:38;98239.52;;;-4.19;77.08
38267;BME280;24063;51.794;19.578;2022-11-20T01:06:40;98237.34;;;-4.17;77.30
38267;BME280;24063;51.794;19.578;2022-11-20T01:07:42;98239.42;;;-4.15;77.29
38267;BME280;24063;51.794;19.578;2022-11-20T01:08:44;98238.77;;;-4.14;77.33
38267;BME280;24063;51.794;19.578;2022-11-20T01:09:46;98239.80;;;-4.12;77.30
38267;BME280;24063;51.794;19.578;2022-11-20T01:10:48;98238.30;;;-4.11;77.12
38267;BME280;24063;51.794;19.578;2022-11-20T01:11:50;98240.63;;;-4.12;77.21
38267;BME280;24063;51.794;19.578;2022-11-20T01:12:52;98239.11;;;-4.12;77.27
38267;BME280;24063;51.794;19.578;2022-11-20T01:14:17;98236.02;;;-4.13;77.14
38267;BME280;24063;51.794;19.578;2022-11-20T01:15:20;98236.30;;;-4.14;77.03
38267;BME280;24063;51.794;19.578;2022-11-20T01:17:25;98234.51;;;-4.15;77.25
38267;BME280;24063;51.794;19.578;2022-11-20T01:18:26;98234.52;;;-4.15;77.18
38267;BME280;24063;51.794;19.578;2022-11-20T01:19:28;98231.34;;;-4.15;77.39
38267;BME280;24063;51.794;19.578;2022-11-20T01:20:33;98231.82;;;-4.16;77.29
38267;BME280;24063;51.794;19.578;2022-11-20T01:21:38;98231.36;;;-4.17;77.21
38267;BME280;24063;51.794;19.578;2022-11-20T01:22:40;98229.93;;;-4.18;77.21
38267;BME280;24063;51.794;19.578;2022-11-20T01:23:43;98233.34;;;-4.19;77.10
38267;BME280;24063;51.794;19.578;2022-11-20T01:24:45;98234.63;;;-4.20;77.02
38267;BME280;24063;51.794;19.578;2022-11-20T01:25:47;98236.91;;;-4.23;77.12
38267;BME280;24063;51.794;19.578;2022-11-20T01:26:50;98239.89;;;-4.26;77.20
38267;BME280;24063;51.794;19.578;2022-11-20T01:27:52;98238.40;;;-4.28;77.11
38267;BME280;24063;51.794;19.578;2022-11-20T01:28:56;98243.41;;;-4.31;76.97
38267;BME280;24063;51.794;19.578;2022-11-20T01:29:58;98237.30;;;-4.36;77.16
38267;BME280;24063;51.794;19.578;2022-11-20T01:31:31;98238.57;;;-4.40;77.18
38267;BME280;24063;51.794;19.578;2022-11-20T01:32:32;98235.16;;;-4.45;77.32
38267;BME280;24063;51.794;19.578;2022-11-20T01:33:33;98231.70;;;-4.47;77.50
38267;BME280;24063;51.794;19.578;2022-11-20T01:34:35;98228.63;;;-4.47;77.41
38267;BME280;24063;51.794;19.578;2022-11-20T01:35:37;98228.98;;;-4.49;77.72
38267;BME280;24063;51.794;19.578;2022-11-20T01:36:41;98225.06;;;-4.48;78.01
38267;BME280;24063;51.794;19.578;2022-11-20T01:37:44;98225.73;;;-4.50;77.77
38267;BME280;24063;51.794;19.578;2022-11-20T01:38:46;98225.56;;;-4.51;78.26
38267;BME280;24063;51.794;19.578;2022-11-20T01:39:47;98225.36;;;-4.51;78.34
38267;BME280;24063;51.794;19.578;2022-11-20T01:40:56;98223.09;;;-4.54;78.43
38267;BME280;24063;51.794;19.578;2022-11-20T01:41:57;98224.63;;;-4.52;78.42
38267;BME280;24063;51.794;19.578;2022-11-20T01:43:19;98225.52;;;-4.51;78.48
38267;BME280;24063;51.794;19.578;2022-11-20T01:45:42;98224.34;;;-4.51;78.44
38267;BME280;24063;51.794;19.578;2022-11-20T01:46:14;98225.34;;;-4.49;78.71
38267;BME280;24063;51.794;19.578;2022-11-20T01:47:37;98226.88;;;-4.47;78.79
38267;BME280;24063;51.794;19.578;2022-11-20T01:48:50;98231.81;;;-4.46;78.77
38267;BME280;24063;51.794;19.578;2022-11-20T01:50:15;98231.54;;;-4.45;79.12
38267;BME280;24063;51.794;19.578;2022-11-20T01:51:32;98231.94;;;-4.43;79.06
38267;BME280;24063;51.794;19.578;2022-11-20T01:52:46;98236.41;;;-4.41;79.03
38267;BME280;24063;51.794;19.578;2022-11-20T01:53:53;98232.91;;;-4.39;79.04
38267;BME280;24063;51.794;19.578;2022-11-20T01:55:29;98232.59;;;-4.38;79.16
38267;BME280;24063;51.794;19.578;2022-11-20T01:56:34;98233.23;;;-4.38;79.20
38267;BME280;24063;51.794;19.578;2022-11-20T01:57:38;98233.52;;;-4.37;79.24
38267;BME280;24063;51.794;19.578;2022-11-20T01:58:48;98233.45;;;-4.37;79.25
38267;BME280;24063;51.794;19.578;2022-11-20T02:00:08;98233.02;;;-4.36;79.26
38267;BME280;24063;51.794;19.578;2022-11-20T02:01:14;98235.90;;;-4.35;79.24
38267;BME280;24063;51.794;19.578;2022-11-20T02:02:21;98236.55;;;-4.34;79.34
38267;BME280;24063;51.794;19.578;2022-11-20T02:03:23;98235.13;;;-4.31;79.40
38267;BME280;24063;51.794;19.578;2022-11-20T02:04:25;98234.40;;;-4.30;79.15
38267;BME280;24063;51.794;19.578;2022-11-20T02:05:43;98231.83;;;-4.29;79.29
38267;BME280;24063;51.794;19.578;2022-11-20T02:06:52;98230.17;;;-4.27;79.41
38267;BME280;24063;51.794;19.578;2022-11-20T02:07:57;98231.98;;;-4.26;79.21
38267;BME280;24063;51.794;19.578;2022-11-20T02:09:00;98231.25;;;-4.25;79.29
38267;BME280;24063;51.794;19.578;2022-11-20T02:10:03;98229.94;;;-4.22;79.00
38267;BME280;24063;51.794;19.578;2022-11-20T02:11:05;98227.68;;;-4.21;78.86
38267;BME280;24063;51.794;19.578;2022-11-20T02:12:07;98230.86;;;-4.20;79.21
38267;BME280;24063;51.794;19.578;2022-11-20T02:13:29;98227.70;;;-4.18;78.79
38267;BME280;24063;51.794;19.578;2022-11-20T02:14:46;98228.60;;;-4.19;78.62
38267;BME280;24063;51.794;19.578;2022-11-20T02:15:49;98223.41;;;-4.18;78.78
38267;BME280;24063;51.794;19.578;2022-11-20T02:16:51;98221.54;;;-4.17;78.91
38267;BME280;24063;51.794;19.578;2022-11-20T02:17:53;98223.42;;;-4.15;78.71
38267;BME280;24063;51.794;19.578;2022-11-20T02:18:59;98221.02;;;-4.15;78.41
38267;BME280;24063;51.794;19.578;2022-11-20T02:20:02;98220.61;;;-4.17;78.66
38267;BME280;24063;51.794;19.578;2022-11-20T02:21:22;98217.13;;;-4.15;78.87
38267;BME280;24063;51.794;19.578;2022-11-20T02:22:35;98221.67;;;-4.15;78.57
38267;BME280;24063;51.794;19.578;2022-11-20T02:24:12;98218.21;;;-4.17;78.66
38267;BME280;24063;51.794;19.578;2022-11-20T02:25:17;98221.52;;;-4.18;78.58
38267;BME280;24063;51.794;19.578;2022-11-20T02:26:22;98222.89;;;-4.21;78.68
38267;BME280;24063;51.794;19.578;2022-11-20T02:27:26;98218.77;;;-4.23;78.84
38267;BME280;24063;51.794;19.578;2022-11-20T02:28:28;98219.15;;;-4.25;78.80
38267;BME280;24063;51.794;19.578;2022-11-20T02:29:53;98223.56;;;-4.25;78.93
38267;BME280;24063;51.794;19.578;2022-11-20T02:30:57;98219.50;;;-4.26;79.16
38267;BME280;24063;51.794;19.578;2022-11-20T02:32:00;98218.42;;;-4.24;79.41
38267;BME280;24063;51.794;19.578;2022-11-20T02:33:02;98218.08;;;-4.23;79.33
38267;BME280;24063;51.794;19.578;2022-11-20T02:34:06;98214.39;;;-4.23;79.17
38267;BME280;24063;51.794;19.578;2022-11-20T02:36:19;98212.59;;;-4.23;79.36
38267;BME280;24063;51.794;19.578;2022-11-20T02:37:22;98215.03;;;-4.23;79.50
38267;BME280;24063;51.794;19.578;2022-11-20T02:38:24;98213.41;;;-4.22;79.36
38267;BME280;24063;51.794;19.578;2022-11-20T02:39:28;98217.08;;;-4.21;79.38
38267;BME280;24063;51.794;19.578;2022-11-20T02:40:32;98211.95;;;-4.21;79.36
38267;BME280;24063;51.794;19.578;2022-11-20T02:41:37;98213.95;;;-4.21;79.32
38267;BME280;24063;51.794;19.578;2022-11-20T02:42:39;98215.09;;;-4.20;79.44
38267;BME280;24063;51.794;19.578;2022-11-20T02:43:41;98211.77;;;-4.19;79.60
38267;BME280;24063;51.794;19.578;2022-11-20T02:44:44;98212.33;;;-4.16;79.62
38267;BME280;24063;51.794;19.578;2022-11-20T02:45:46;98213.40;;;-4.13;79.53
38267;BME280;24063;51.794;19.578;2022-11-20T02:46:47;98210.84;;;-4.13;79.72
38267;BME280;24063;51.794;19.578;2022-11-20T02:47:50;98211.77;;;-4.12;79.82
38267;BME280;24063;51.794;19.578;2022-11-20T02:48:52;98208.88;;;-4.11;79.65
38267;BME280;24063;51.794;19.578;2022-11-20T02:49:54;98210.63;;;-4.11;79.64
38267;BME280;24063;51.794;19.578;2022-11-20T02:50:56;98207.60;;;-4.09;79.69
38267;BME280;24063;51.794;19.578;2022-11-20T02:51:58;98208.63;;;-4.09;79.82
38267;BME280;24063;51.794;19.578;2022-11-20T02:53:00;98205.73;;;-4.08;79.73
38267;BME280;24063;51.794;19.578;2022-11-20T02:54:02;98203.34;;;-4.07;79.84
38267;BME280;24063;51.794;19.578;2022-11-20T02:55:04;98205.25;;;-4.07;79.47
38267;BME280;24063;51.794;19.578;2022-11-20T02:56:07;98207.45;;;-4.08;79.58
38267;BME280;24063;51.794;19.578;2022-11-20T02:57:08;98205.69;;;-4.10;79.54
38267;BME280;24063;51.794;19.578;2022-11-20T02:58:10;98206.47;;;-4.11;79.58
38267;BME280;24063;51.794;19.578;2022-11-20T02:59:12;98203.45;;;-4.14;79.52
38267;BME280;24063;51.794;19.578;2022-11-20T03:00:14;98206.52;;;-4.18;79.56
38267;BME280;24063;51.794;19.578;2022-11-20T03:01:16;98204.17;;;-4.20;79.67
38267;BME280;24063;51.794;19.578;2022-11-20T03:02:17;98207.77;;;-4.22;79.73
38267;BME280;24063;51.794;19.578;2022-11-20T03:03:19;98207.64;;;-4.24;79.86
38267;BME280;24063;51.794;19.578;2022-11-20T03:04:21;98208.55;;;-4.27;79.84
38267;BME280;24063;51.794;19.578;2022-11-20T03:05:23;98206.94;;;-4.29;80.12
38267;BME280;24063;51.794;19.578;2022-11-20T03:06:25;98207.67;;;-4.32;80.00
38267;BME280;24063;51.794;19.578;2022-11-20T03:07:27;98205.73;;;-4.32;80.23
38267;BME280;24063;51.794;19.578;2022-11-20T03:08:29;98208.35;;;-4.34;80.34
38267;BME280;24063;51.794;19.578;2022-11-20T03:09:31;98207.86;;;-4.34;80.27
38267;BME280;24063;51.794;19.578;2022-11-20T03:10:33;98206.41;;;-4.35;80.40
38267;BME280;24063;51.794;19.578;2022-11-20T03:11:34;98206.02;;;-4.37;80.59
38267;BME280;24063;51.794;19.578;2022-11-20T03:12:37;98205.41;;;-4.37;80.62
38267;BME280;24063;51.794;19.578;2022-11-20T03:13:38;98207.17;;;-4.36;80.96
38267;BME280;24063;51.794;19.578;2022-11-20T03:14:40;98210.02;;;-4.35;80.87
38267;BME280;24063;51.794;19.578;2022-11-20T03:15:53;98205.39;;;-4.34;80.75
38267;BME280;24063;51.794;19.578;2022-11-20T03:16:55;98204.50;;;-4.34;80.67
38267;BME280;24063;51.794;19.578;2022-11-20T03:17:57;98203.69;;;-4.33;80.76
38267;BME280;24063;51.794;19.578;2022-11-20T03:19:02;98206.48;;;-4.33;80.72
38267;BME280;24063;51.794;19.578;2022-11-20T03:20:05;98203.31;;;-4.34;80.62
38267;BME280;24063;51.794;19.578;2022-11-20T03:21:09;98198.59;;;-4.36;80.87
38267;BME280;24063;51.794;19.578;2022-11-20T03:22:11;98201.16;;;-4.36;80.91
38267;BME280;24063;51.794;19.578;2022-11-20T03:23:13;98198.44;;;-4.35;81.16
38267;BME280;24063;51.794;19.578;2022-11-20T03:24:15;98200.73;;;-4.33;81.17
38267;BME280;24063;51.794;19.578;2022-11-20T03:25:16;98203.79;;;-4.31;81.13
38267;BME280;24063;51.794;19.578;2022-11-20T03:26:22;98200.48;;;-4.30;81.03
38267;BME280;24063;51.794;19.578;2022-11-20T03:27:24;98202.52;;;-4.29;80.85
38267;BME280;24063;51.794;19.578;2022-11-20T03:28:25;98200.35;;;-4.30;80.73
38267;BME280;24063;51.794;19.578;2022-11-20T03:29:27;98199.11;;;-4.32;80.80
38267;BME280;24063;51.794;19.578;2022-11-20T03:30:29;98202.52;;;-4.32;81.02
38267;BME280;24063;51.794;19.578;2022-11-20T03:31:37;98201.33;;;-4.33;80.89
38267;BME280;24063;51.794;19.578;2022-11-20T03:32:42;98200.31;;;-4.34;80.72
38267;BME280;24063;51.794;19.578;2022-11-20T03:33:44;98200.10;;;-4.36;80.88
38267;BME280;24063;51.794;19.578;2022-11-20T03:34:46;98196.01;;;-4.35;80.99
38267;BME280;24063;51.794;19.578;2022-11-20T03:35:47;98199.41;;;-4.36;80.99
38267;BME280;24063;51.794;19.578;2022-11-20T03:36:49;98200.56;;;-4.38;80.76
38267;BME280;24063;51.794;19.578;2022-11-20T03:37:51;98199.48;;;-4.42;80.66
38267;BME280;24063;51.794;19.578;2022-11-20T03:38:55;98195.67;;;-4.45;80.96
38267;BME280;24063;51.794;19.578;2022-11-20T03:39:57;98198.53;;;-4.47;80.88
38267;BME280;24063;51.794;19.578;2022-11-20T03:41:03;98199.77;;;-4.50;80.89
38267;BME280;24063;51.794;19.578;2022-11-20T03:42:05;98202.91;;;-4.53;81.06
38267;BME280;24063;51.794;19.578;2022-11-20T03:43:27;98209.67;;;-4.58;80.95
38267;BME280;24063;51.794;19.578;2022-11-20T03:44:29;98210.33;;;-4.62;81.17
38267;BME280;24063;51.794;19.578;2022-11-20T03:45:31;98206.63;;;-4.66;81.51
38267;BME280;24063;51.794;19.578;2022-11-20T03:46:33;98208.47;;;-4.68;81.38
38267;BME280;24063;51.794;19.578;2022-11-20T03:47:35;98208.89;;;-4.70;81.63
38267;BME280;24063;51.794;19.578;2022-11-20T03:48:37;98208.14;;;-4.73;81.88
38267;BME280;24063;51.794;19.578;2022-11-20T03:49:39;98208.44;;;-4.74;81.92
38267;BME280;24063;51.794;19.578;2022-11-20T03:50:40;98209.40;;;-4.76;81.93
38267;BME280;24063;51.794;19.578;2022-11-20T03:51:42;98208.24;;;-4.78;82.15
38267;BME280;24063;51.794;19.578;2022-11-20T03:52:44;98210.59;;;-4.81;82.35
38267;BME280;24063;51.794;19.578;2022-11-20T03:53:47;98208.73;;;-4.85;82.46
38267;BME280;24063;51.794;19.578;2022-11-20T03:54:49;98211.17;;;-4.88;82.70
38267;BME280;24063;51.794;19.578;2022-11-20T03:55:51;98212.16;;;-4.90;82.79
38267;BME280;24063;51.794;19.578;2022-11-20T03:56:53;98212.39;;;-4.92;83.13
38267;BME280;24063;51.794;19.578;2022-11-20T03:57:54;98211.12;;;-4.93;83.07
38267;BME280;24063;51.794;19.578;2022-11-20T03:58:57;98209.15;;;-4.94;83.13
38267;BME280;24063;51.794;19.578;2022-11-20T03:59:59;98208.61;;;-4.96;83.40
38267;BME280;24063;51.794;19.578;2022-11-20T04:01:09;98209.95;;;-4.95;83.32
38267;BME280;24063;51.794;19.578;2022-11-20T04:02:11;98206.86;;;-4.96;83.71
38267;BME280;24063;51.794;19.578;2022-11-20T04:03:13;98207.63;;;-4.96;83.72
38267;BME280;24063;51.794;19.578;2022-11-20T04:04:15;98206.53;;;-4.98;83.90
38267;BME280;24063;51.794;19.578;2022-11-20T04:05:17;98201.49;;;-4.98;84.23
38267;BME280;24063;51.794;19.578;2022-11-20T04:06:25;98201.73;;;-4.98;84.20
38267;BME280;24063;51.794;19.578;2022-11-20T04:07:27;98201.19;;;-5.00;84.26
38267;BME280;24063;51.794;19.578;2022-11-20T04:08:30;98201.69;;;-5.02;84.16
38267;BME280;24063;51.794;19.578;2022-11-20T04:09:32;98203.33;;;-5.03;84.39
38267;BME280;24063;51.794;19.578;2022-11-20T04:10:34;98202.19;;;-5.05;84.31
38267;BME280;24063;51.794;19.578;2022-11-20T04:11:39;98201.67;;;-5.06;84.31
38267;BME280;24063;51.794;19.578;2022-11-20T04:12:41;98199.55;;;-5.11;84.34
38267;BME280;24063;51.794;19.578;2022-11-20T04:13:48;98200.05;;;-5.14;84.41
38267;BME280;24063;51.794;19.578;2022-11-20T04:14:50;98199.30;;;-5.15;84.76
38267;BME280;24063;51.794;19.578;2022-11-20T04:15:57;98203.27;;;-5.16;84.83
38267;BME280;24063;51.794;19.578;2022-11-20T04:16:59;98202.88;;;-5.15;84.82
38267;BME280;24063;51.794;19.578;2022-11-20T04:18:01;98202.98;;;-5.16;85.11
38267;BME280;24063;51.794;19.578;2022-11-20T04:19:05;98202.65;;;-5.16;85.33
38267;BME280;24063;51.794;19.578;2022-11-20T04:20:08;98199.35;;;-5.18;85.19
38267;BME280;24063;51.794;19.578;2022-11-20T04:21:10;98198.00;;;-5.19;85.33
38267;BME280;24063;51.794;19.578;2022-11-20T04:22:12;98199.53;;;-5.20;85.37
38267;BME280;24063;51.794;19.578;2022-11-20T04:23:14;98195.58;;;-5.20;85.63
38267;BME280;24063;51.794;19.578;2022-11-20T04:24:16;98194.44;;;-5.21;85.50
38267;BME280;24063;51.794;19.578;2022-11-20T04:25:18;98191.99;;;-5.23;85.51
38267;BME280;24063;51.794;19.578;2022-11-20T04:26:22;98191.16;;;-5.24;85.68
38267;BME280;24063;51.794;19.578;2022-11-20T04:27:24;98188.42;;;-5.26;85.66
38267;BME280;24063;51.794;19.578;2022-11-20T04:28:26;98187.73;;;-5.29;85.97
38267;BME280;24063;51.794;19.578;2022-11-20T04:29:28;98189.43;;;-5.31;86.20
38267;BME280;24063;51.794;19.578;2022-11-20T04:30:30;98191.60;;;-5.33;86.46
38267;BME280;24063;51.794;19.578;2022-11-20T04:31:34;98185.97;;;-5.35;86.43
38267;BME280;24063;51.794;19.578;2022-11-20T04:32:36;98185.15;;;-5.39;86.72
38267;BME280;24063;51.794;19.578;2022-11-20T04:33:39;98188.84;;;-5.39;86.87
38267;BME280;24063;51.794;19.578;2022-11-20T04:34:41;98189.13;;;-5.41;86.86
38267;BME280;24063;51.794;19.578;2022-11-20T04:35:46;98189.54;;;-5.44;86.98
38267;BME280;24063;51.794;19.578;2022-11-20T04:36:49;98192.60;;;-5.48;86.99
38267;BME280;24063;51.794;19.578;2022-11-20T04:37:51;98186.97;;;-5.51;87.24
38267;BME280;24063;51.794;19.578;2022-11-20T04:38:56;98189.42;;;-5.53;87.39
38267;BME280;24063;51.794;19.578;2022-11-20T04:39:58;98192.33;;;-5.54;87.51
38267;BME280;24063;51.794;19.578;2022-11-20T04:41:02;98193.00;;;-5.55;87.73
38267;BME280;24063;51.794;19.578;2022-11-20T04:42:04;98190.38;;;-5.56;87.64
38267;BME280;24063;51.794;19.578;2022-11-20T04:43:25;98188.23;;;-5.59;87.92
38267;BME280;24063;51.794;19.578;2022-11-20T04:44:26;98192.69;;;-5.60;88.08
38267;BME280;24063;51.794;19.578;2022-11-20T04:45:28;98192.77;;;-5.62;88.18
38267;BME280;24063;51.794;19.578;2022-11-20T04:46:41;98193.42;;;-5.64;88.30
38267;BME280;24063;51.794;19.578;2022-11-20T04:47:43;98188.55;;;-5.68;88.70
38267;BME280;24063;51.794;19.578;2022-11-20T04:48:45;98188.52;;;-5.70;88.80
38267;BME280;24063;51.794;19.578;2022-11-20T04:49:47;98188.90;;;-5.74;88.58
38267;BME280;24063;51.794;19.578;2022-11-20T04:50:50;98188.13;;;-5.79;88.80
38267;BME280;24063;51.794;19.578;2022-11-20T04:51:54;98183.91;;;-5.82;89.12
38267;BME280;24063;51.794;19.578;2022-11-20T04:52:56;98183.31;;;-5.84;89.15
38267;BME280;24063;51.794;19.578;2022-11-20T04:53:58;98184.79;;;-5.86;89.15
38267;BME280;24063;51.794;19.578;2022-11-20T04:55:00;98187.84;;;-5.90;89.05
38267;BME280;24063;51.794;19.578;2022-11-20T04:56:03;98184.86;;;-5.92;89.40
38267;BME280;24063;51.794;19.578;2022-11-20T04:57:06;98185.06;;;-5.95;89.47
38267;BME280;24063;51.794;19.578;2022-11-20T04:58:15;98185.81;;;-5.98;89.48
38267;BME280;24063;51.794;19.578;2022-11-20T04:59:17;98187.84;;;-6.03;89.56
38267;BME280;24063;51.794;19.578;2022-11-20T05:00:19;98185.47;;;-6.07;89.81
38267;BME280;24063;51.794;19.578;2022-11-20T05:01:23;98183.86;;;-6.12;89.93
38267;BME280;24063;51.794;19.578;2022-11-20T05:02:25;98183.42;;;-6.17;89.99
38267;BME280;24063;51.794;19.578;2022-11-20T05:03:27;98185.80;;;-6.22;90.06
38267;BME280;24063;51.794;19.578;2022-11-20T05:04:29;98187.98;;;-6.28;90.35
38267;BME280;24063;51.794;19.578;2022-11-20T05:05:33;98182.20;;;-6.32;90.44
38267;BME280;24063;51.794;19.578;2022-11-20T05:06:35;98183.65;;;-6.37;90.81
38267;BME280;24063;51.794;19.578;2022-11-20T05:07:37;98182.20;;;-6.40;91.07
38267;BME280;24063;51.794;19.578;2022-11-20T05:08:39;98183.60;;;-6.42;91.22
38267;BME280;24063;51.794;19.578;2022-11-20T05:09:41;98184.55;;;-6.43;91.34
38267;BME280;24063;51.794;19.578;2022-11-20T05:10:43;98182.53;;;-6.44;91.53
38267;BME280;24063;51.794;19.578;2022-11-20T05:11:45;98182.34;;;-6.46;91.47
38267;BME280;24063;51.794;19.578;2022-11-20T05:12:53;98185.48;;;-6.48;91.53
38267;BME280;24063;51.794;19.578;2022-11-20T05:13:55;98182.50;;;-6.53;91.48
38267;BME280;24063;51.794;19.578;2022-11-20T05:14:56;98184.21;;;-6.57;91.81
38267;BME280;24063;51.794;19.578;2022-11-20T05:16:04;98185.34;;;-6.59;91.97
38267;BME280;24063;51.794;19.578;2022-11-20T05:17:10;98190.19;;;-6.62;92.26
38267;BME280;24063;51.794;19.578;2022-11-20T05:18:11;98191.94;;;-6.63;92.25
38267;BME280;24063;51.794;19.578;2022-11-20T05:19:13;98192.45;;;-6.65;92.30
38267;BME280;24063;51.794;19.578;2022-11-20T05:20:15;98189.73;;;-6.66;92.29
38267;BME280;24063;51.794;19.578;2022-11-20T05:21:17;98193.09;;;-6.68;92.40
38267;BME280;24063;51.794;19.578;2022-11-20T05:22:19;98189.59;;;-6.71;92.37
38267;BME280;24063;51.794;19.578;2022-11-20T05:23:21;98187.33;;;-6.72;92.46
38267;BME280;24063;51.794;19.578;2022-11-20T05:24:23;98191.09;;;-6.75;92.72
38267;BME280;24063;51.794;19.578;2022-11-20T05:25:25;98192.13;;;-6.76;92.83
38267;BME280;24063;51.794;19.578;2022-11-20T05:26:27;98194.89;;;-6.79;92.90
38267;BME280;24063;51.794;19.578;2022-11-20T05:27:29;98192.78;;;-6.80;93.06
38267;BME280;24063;51.794;19.578;2022-11-20T05:28:32;98193.23;;;-6.81;93.28
38267;BME280;24063;51.794;19.578;2022-11-20T05:29:33;98192.32;;;-6.81;93.38
38267;BME280;24063;51.794;19.578;2022-11-20T05:30:35;98192.41;;;-6.81;93.51
38267;BME280;24063;51.794;19.578;2022-11-20T05:31:40;98191.97;;;-6.82;93.72
38267;BME280;24063;51.794;19.578;2022-11-20T05:32:42;98191.19;;;-6.83;93.67
38267;BME280;24063;51.794;19.578;2022-11-20T05:33:45;98192.11;;;-6.85;93.85
38267;BME280;24063;51.794;19.578;2022-11-20T05:34:47;98193.38;;;-6.87;93.88
38267;BME280;24063;51.794;19.578;2022-11-20T05:35:49;98189.41;;;-6.89;94.02
38267;BME280;24063;51.794;19.578;2022-11-20T05:36:51;98188.69;;;-6.91;94.23
38267;BME280;24063;51.794;19.578;2022-11-20T05:37:52;98191.55;;;-6.90;94.31